sensor_id;sensor_type;location;lat;lon;timestamp;pressure;altitude;pressure_sealevel;temperature;humidity
20019;BME280;10170;42.502;26.526;2023-03-03T00:00:28;100009.53;;;5.66;100.00
20019;BME280;10170;42.502;26.526;2023-03-03T00:02:57;100063.13;;;6.06;100.00
20019;BME280;10170;42.502;26.526;2023-03-03T00:05:26;100066.75;;;6.05;100.00
20019;BME280;10170;42.502;26.526;2023-03-03T00:07:53;100056.38;;;6.04;100.00
20019;BME280;10170;42.502;26.526;2023-03-03T00:10:19;100049.75;;;5.92;100.00
20019;BME280;10170;42.502;26.526;2023-03-03T00:12:48;100049.59;;;5.93;100.00
20019;BME280;10170;42.502;26.526;2023-03-03T00:15:21;100045.16;;;5.86;100.00
20019;BME280;10170;42.502;26.526;2023-03-03T00:17:48;100046.97;;;5.93;100.00
20019;BME280;10170;42.502;26.526;2023-03-03T00:22:48;100042.03;;;5.98;100.00
20019;BME280;10170;42.502;26.526;2023-03-03T00:27:50;100025.53;;;5.96;100.00
20019;BME280;10170;42.502;26.526;2023-03-03T00:30:24;100019.59;;;5.94;100.00
20019;BME280;10170;42.502;26.526;2023-03-03T00:32:53;100023.41;;;5.84;100.00
20019;BME280;10170;42.502;26.526;2023-03-03T00:35:30;100017.44;;;5.90;100.00
20019;BME280;10170;42.502;26.526;2023-03-03T00:38:10;100023.34;;;6.16;100.00
20019;BME280;10170;42.502;26.526;2023-03-03T00:40:39;100022.03;;;6.20;100.00
20019;BME280;10170;42.502;26.526;2023-03-03T00:45:56;100013.28;;;6.19;100.00
20019;BME280;10170;42.502;26.526;2023-03-03T00:48:25;100007.50;;;6.08;100.00
20019;BME280;10170;42.502;26.526;2023-03-03T00:50:55;100005.56;;;5.94;100.00
20019;BME280;10170;42.502;26.526;2023-03-03T00:53:24;99993.69;;;5.82;100.00
20019;BME280;10170;42.502;26.526;2023-03-03T00:55:52;99989.75;;;5.62;100.00
20019;BME280;10170;42.502;26.526;2023-03-03T00:58:20;99996.16;;;5.67;100.00
20019;BME280;10170;42.502;26.526;2023-03-03T01:00:49;99982.66;;;5.62;100.00
20019;BME280;10170;42.502;26.526;2023-03-03T01:03:22;99963.38;;;5.54;100.00
20019;BME280;10170;42.502;26.526;2023-03-03T01:05:51;99979.69;;;5.57;100.00
20019;BME280;10170;42.502;26.526;2023-03-03T01:08:19;99974.44;;;5.57;100.00
20019;BME280;10170;42.502;26.526;2023-03-03T01:10:56;99965.84;;;5.55;100.00
20019;BME280;10170;42.502;26.526;2023-03-03T01:13:29;99968.00;;;5.52;100.00
20019;BME280;10170;42.502;26.526;2023-03-03T01:15:58;99969.31;;;5.48;100.00
20019;BME280;10170;42.502;26.526;2023-03-03T01:18:26;99954.31;;;5.48;100.00
20019;BME280;10170;42.502;26.526;2023-03-03T01:20:53;99966.34;;;5.51;100.00
20019;BME280;10170;42.502;26.526;2023-03-03T01:23:20;99956.13;;;5.39;100.00
20019;BME280;10170;42.502;26.526;2023-03-03T01:25:47;99964.69;;;5.42;100.00
20019;BME280;10170;42.502;26.526;2023-03-03T01:28:14;99954.00;;;5.35;100.00
20019;BME280;10170;42.502;26.526;2023-03-03T01:30:41;99946.25;;;5.33;100.00
20019;BME280;10170;42.502;26.526;2023-03-03T01:33:07;99955.63;;;5.44;100.00
20019;BME280;10170;42.502;26.526;2023-03-03T01:35:34;99956.47;;;5.45;100.00
20019;BME280;10170;42.502;26.526;2023-03-03T01:38:02;99961.06;;;5.59;100.00
20019;BME280;10170;42.502;26.526;2023-03-03T01:40:30;99965.00;;;5.71;100.00
20019;BME280;10170;42.502;26.526;2023-03-03T01:42:59;99966.97;;;5.69;100.00
20019;BME280;10170;42.502;26.526;2023-03-03T01:45:30;99963.84;;;5.81;100.00
20019;BME280;10170;42.502;26.526;2023-03-03T01:48:05;99954.63;;;5.53;100.00
20019;BME280;10170;42.502;26.526;2023-03-03T01:53:09;99961.38;;;5.39;100.00
20019;BME280;10170;42.502;26.526;2023-03-03T01:55:39;99954.13;;;5.42;100.00
20019;BME280;10170;42.502;26.526;2023-03-03T01:58:18;99957.44;;;5.52;100.00
20019;BME280;10170;42.502;26.526;2023-03-03T02:00:50;99941.63;;;5.44;100.00
20019;BME280;10170;42.502;26.526;2023-03-03T02:03:19;99950.69;;;5.49;100.00
20019;BME280;10170;42.502;26.526;2023-03-03T02:05:48;99952.66;;;5.55;100.00
20019;BME280;10170;42.502;26.526;2023-03-03T02:08:21;99940.81;;;5.43;100.00
20019;BME280;10170;42.502;26.526;2023-03-03T02:10:49;99959.44;;;5.50;100.00
20019;BME280;10170;42.502;26.526;2023-03-03T02:13:17;99955.13;;;5.57;100.00
20019;BME280;10170;42.502;26.526;2023-03-03T02:15:43;99939.50;;;5.39;100.00
20019;BME280;10170;42.502;26.526;2023-03-03T02:18:15;99950.69;;;5.49;100.00
20019;BME280;10170;42.502;26.526;2023-03-03T02:20:45;99951.50;;;5.42;100.00
20019;BME280;10170;42.502;26.526;2023-03-03T02:23:22;99951.66;;;5.56;100.00
20019;BME280;10170;42.502;26.526;2023-03-03T02:28:30;99945.75;;;5.30;100.00
20019;BME280;10170;42.502;26.526;2023-03-03T02:30:59;99958.13;;;5.38;100.00
20019;BME280;10170;42.502;26.526;2023-03-03T02:33:27;99965.19;;;5.45;100.00
20019;BME280;10170;42.502;26.526;2023-03-03T02:35:54;99951.38;;;5.43;100.00
20019;BME280;10170;42.502;26.526;2023-03-03T02:38:52;99953.78;;;5.69;100.00
20019;BME280;10170;42.502;26.526;2023-03-03T02:42:24;99955.44;;;5.78;100.00
20019;BME280;10170;42.502;26.526;2023-03-03T02:44:24;99952.13;;;5.76;100.00
20019;BME280;10170;42.502;26.526;2023-03-03T02:46:53;99948.38;;;5.54;100.00
20019;BME280;10170;42.502;26.526;2023-03-03T02:49:28;99937.00;;;5.46;100.00
20019;BME280;10170;42.502;26.526;2023-03-03T02:51:58;99935.19;;;5.46;100.00
20019;BME280;10170;42.502;26.526;2023-03-03T02:54:27;99939.16;;;5.42;100.00
20019;BME280;10170;42.502;26.526;2023-03-03T02:56:57;99939.66;;;5.29;100.00
20019;BME280;10170;42.502;26.526;2023-03-03T02:59:24;99931.06;;;5.11;100.00
20019;BME280;10170;42.502;26.526;2023-03-03T03:01:51;99935.53;;;5.27;100.00
20019;BME280;10170;42.502;26.526;2023-03-03T03:04:26;99939.81;;;5.28;100.00
20019;BME280;10170;42.502;26.526;2023-03-03T03:06:53;99943.59;;;5.33;100.00
20019;BME280;10170;42.502;26.526;2023-03-03T03:09:22;99935.03;;;5.39;100.00
20019;BME280;10170;42.502;26.526;2023-03-03T03:11:50;99933.38;;;5.22;100.00
20019;BME280;10170;42.502;26.526;2023-03-03T03:14:17;99931.75;;;5.13;100.00
20019;BME280;10170;42.502;26.526;2023-03-03T03:16:44;99943.13;;;5.30;100.00
20019;BME280;10170;42.502;26.526;2023-03-03T03:19:11;99924.84;;;5.28;100.00
20019;BME280;10170;42.502;26.526;2023-03-03T03:21:37;99933.88;;;5.26;100.00
20019;BME280;10170;42.502;26.526;2023-03-03T03:24:04;99938.81;;;5.29;100.00
20019;BME280;10170;42.502;26.526;2023-03-03T03:26:31;99938.00;;;5.36;100.00
20019;BME280;10170;42.502;26.526;2023-03-03T03:28:59;99947.88;;;5.34;100.00
20019;BME280;10170;42.502;26.526;2023-03-03T03:31:26;99942.94;;;5.39;100.00
20019;BME280;10170;42.502;26.526;2023-03-03T03:33:53;99919.41;;;5.30;100.00
20019;BME280;10170;42.502;26.526;2023-03-03T03:36:20;99938.50;;;5.48;100.00
20019;BME280;10170;42.502;26.526;2023-03-03T03:38:46;99925.78;;;5.60;100.00
20019;BME280;10170;42.502;26.526;2023-03-03T03:41:13;99938.81;;;5.53;100.00
20019;BME280;10170;42.502;26.526;2023-03-03T03:43:40;99936.34;;;5.44;100.00
20019;BME280;10170;42.502;26.526;2023-03-03T03:46:07;99944.09;;;5.45;100.00
20019;BME280;10170;42.502;26.526;2023-03-03T03:48:34;99944.09;;;5.29;100.00
20019;BME280;10170;42.502;26.526;2023-03-03T03:51:01;99943.13;;;5.30;100.00
20019;BME280;10170;42.502;26.526;2023-03-03T03:53:29;99939.97;;;5.43;100.00
20019;BME280;10170;42.502;26.526;2023-03-03T03:55:56;99941.44;;;5.61;100.00
20019;BME280;10170;42.502;26.526;2023-03-03T03:58:22;99942.94;;;5.56;100.00
20019;BME280;10170;42.502;26.526;2023-03-03T04:00:49;99938.16;;;5.59;100.00
20019;BME280;10170;42.502;26.526;2023-03-03T04:03:16;99944.25;;;5.52;100.00
20019;BME280;10170;42.502;26.526;2023-03-03T04:05:43;99943.09;;;5.38;100.00
20019;BME280;10170;42.502;26.526;2023-03-03T04:08:11;99943.78;;;5.32;100.00
20019;BME280;10170;42.502;26.526;2023-03-03T04:10:38;99940.97;;;5.33;100.00
20019;BME280;10170;42.502;26.526;2023-03-03T04:13:04;99928.63;;;5.34;100.00
20019;BME280;10170;42.502;26.526;2023-03-03T04:15:31;99944.25;;;5.27;100.00
20019;BME280;10170;42.502;26.526;2023-03-03T04:17:58;99931.75;;;5.21;100.00
20019;BME280;10170;42.502;26.526;2023-03-03T04:20:25;99942.47;;;5.28;100.00
20019;BME280;10170;42.502;26.526;2023-03-03T04:22:52;99939.66;;;5.46;100.00
20019;BME280;10170;42.502;26.526;2023-03-03T04:25:19;99942.59;;;5.34;100.00
20019;BME280;10170;42.502;26.526;2023-03-03T04:27:45;99931.75;;;5.38;100.00
20019;BME280;10170;42.502;26.526;2023-03-03T04:30:14;99923.84;;;5.38;100.00
20019;BME280;10170;42.502;26.526;2023-03-03T04:32:41;99928.09;;;5.55;100.00
20019;BME280;10170;42.502;26.526;2023-03-03T04:35:08;99898.78;;;5.33;100.00
20019;BME280;10170;42.502;26.526;2023-03-03T04:37:36;99933.53;;;5.45;100.00
20019;BME280;10170;42.502;26.526;2023-03-03T04:40:05;99919.34;;;5.54;100.00
20019;BME280;10170;42.502;26.526;2023-03-03T04:42:32;99921.53;;;5.43;100.00
20019;BME280;10170;42.502;26.526;2023-03-03T04:44:59;99917.91;;;5.27;100.00
20019;BME280;10170;42.502;26.526;2023-03-03T04:47:26;99925.63;;;5.29;100.00
20019;BME280;10170;42.502;26.526;2023-03-03T04:49:53;99931.09;;;5.35;100.00
20019;BME280;10170;42.502;26.526;2023-03-03T04:52:19;99933.91;;;5.34;100.00
20019;BME280;10170;42.502;26.526;2023-03-03T04:54:46;99932.06;;;5.43;100.00
20019;BME280;10170;42.502;26.526;2023-03-03T04:57:13;99933.72;;;5.52;100.00
20019;BME280;10170;42.502;26.526;2023-03-03T04:59:40;99937.16;;;5.52;100.00
20019;BME280;10170;42.502;26.526;2023-03-03T05:02:07;99935.03;;;5.56;100.00
20019;BME280;10170;42.502;26.526;2023-03-03T05:04:33;99931.56;;;5.55;100.00
20019;BME280;10170;42.502;26.526;2023-03-03T05:07:00;99921.34;;;5.44;100.00
20019;BME280;10170;42.502;26.526;2023-03-03T05:09:27;99931.25;;;5.42;100.00
20019;BME280;10170;42.502;26.526;2023-03-03T05:11:54;99931.75;;;5.38;100.00
20019;BME280;10170;42.502;26.526;2023-03-03T05:14:21;99934.69;;;5.34;100.00
20019;BME280;10170;42.502;26.526;2023-03-03T05:16:47;99940.47;;;5.46;100.00
20019;BME280;10170;42.502;26.526;2023-03-03T05:19:14;99934.69;;;5.51;100.00
20019;BME280;10170;42.502;26.526;2023-03-03T05:21:41;99941.91;;;5.65;100.00
20019;BME280;10170;42.502;26.526;2023-03-03T05:24:10;99934.19;;;5.55;100.00
20019;BME280;10170;42.502;26.526;2023-03-03T05:26:37;99931.38;;;5.49;100.00
20019;BME280;10170;42.502;26.526;2023-03-03T05:29:05;99926.97;;;5.41;100.00
20019;BME280;10170;42.502;26.526;2023-03-03T05:31:32;99930.56;;;5.40;100.00
20019;BME280;10170;42.502;26.526;2023-03-03T05:33:59;99925.31;;;5.40;100.00
20019;BME280;10170;42.502;26.526;2023-03-03T05:36:25;99928.63;;;5.34;100.00
20019;BME280;10170;42.502;26.526;2023-03-03T05:38:52;99931.91;;;5.44;100.00
20019;BME280;10170;42.502;26.526;2023-03-03T05:41:20;99915.91;;;5.46;100.00
20019;BME280;10170;42.502;26.526;2023-03-03T05:43:47;99902.09;;;5.35;100.00
20019;BME280;10170;42.502;26.526;2023-03-03T05:46:14;99911.78;;;5.51;100.00
20019;BME280;10170;42.502;26.526;2023-03-03T05:48:41;99908.16;;;5.60;100.00
20019;BME280;10170;42.502;26.526;2023-03-03T05:51:08;99915.06;;;5.45;100.00
20019;BME280;10170;42.502;26.526;2023-03-03T05:53:35;99907.16;;;5.45;100.00
20019;BME280;10170;42.502;26.526;2023-03-03T05:56:02;99915.25;;;5.52;100.00
20019;BME280;10170;42.502;26.526;2023-03-03T05:58:29;99912.75;;;5.58;100.00
20019;BME280;10170;42.502;26.526;2023-03-03T06:00:56;99911.63;;;5.61;100.00
20019;BME280;10170;42.502;26.526;2023-03-03T06:03:23;99910.13;;;5.66;100.00
20019;BME280;10170;42.502;26.526;2023-03-03T06:05:49;99865.63;;;5.47;100.00
20019;BME280;10170;42.502;26.526;2023-03-03T06:08:16;99910.09;;;5.90;100.00
20019;BME280;10170;42.502;26.526;2023-03-03T06:10:43;99916.03;;;5.92;100.00
20019;BME280;10170;42.502;26.526;2023-03-03T06:13:10;99921.34;;;5.84;100.00
20019;BME280;10170;42.502;26.526;2023-03-03T06:15:37;99907.28;;;5.92;100.00
20019;BME280;10170;42.502;26.526;2023-03-03T06:18:04;99909.84;;;6.16;100.00
20019;BME280;10170;42.502;26.526;2023-03-03T06:20:31;99912.97;;;6.11;100.00
20019;BME280;10170;42.502;26.526;2023-03-03T06:22:58;99911.00;;;6.13;100.00
20019;BME280;10170;42.502;26.526;2023-03-03T06:25:25;99910.50;;;6.10;100.00
20019;BME280;10170;42.502;26.526;2023-03-03T06:27:52;99920.53;;;6.22;100.00
20019;BME280;10170;42.502;26.526;2023-03-03T06:30:19;99925.72;;;6.38;100.00
20019;BME280;10170;42.502;26.526;2023-03-03T06:32:46;99915.72;;;6.26;100.00
20019;BME280;10170;42.502;26.526;2023-03-03T06:35:13;99932.16;;;6.44;100.00
20019;BME280;10170;42.502;26.526;2023-03-03T06:37:40;99921.97;;;6.33;100.00
20019;BME280;10170;42.502;26.526;2023-03-03T06:40:07;99927.56;;;6.38;100.00
20019;BME280;10170;42.502;26.526;2023-03-03T06:42:34;99932.50;;;6.41;100.00
20019;BME280;10170;42.502;26.526;2023-03-03T06:45:00;99921.66;;;6.28;100.00
20019;BME280;10170;42.502;26.526;2023-03-03T06:47:27;99935.63;;;6.45;100.00
20019;BME280;10170;42.502;26.526;2023-03-03T06:49:54;99938.19;;;6.83;100.00
20019;BME280;10170;42.502;26.526;2023-03-03T06:52:23;99946.50;;;6.80;100.00
20019;BME280;10170;42.502;26.526;2023-03-03T06:54:54;99940.81;;;6.91;100.00
20019;BME280;10170;42.502;26.526;2023-03-03T06:57:28;99949.78;;;6.82;100.00
20019;BME280;10170;42.502;26.526;2023-03-03T07:02:38;99948.31;;;6.80;100.00
20019;BME280;10170;42.502;26.526;2023-03-03T07:05:11;99946.22;;;6.98;100.00
20019;BME280;10170;42.502;26.526;2023-03-03T07:07:39;99934.75;;;7.05;100.00
20019;BME280;10170;42.502;26.526;2023-03-03T07:10:15;99932.03;;;7.36;100.00
20019;BME280;10170;42.502;26.526;2023-03-03T07:12:43;99937.16;;;7.37;100.00
20019;BME280;10170;42.502;26.526;2023-03-03T07:15:19;99937.81;;;7.39;100.00
20019;BME280;10170;42.502;26.526;2023-03-03T07:17:52;99947.34;;;7.63;100.00
20019;BME280;10170;42.502;26.526;2023-03-03T07:20:32;99948.84;;;7.80;100.00
20019;BME280;10170;42.502;26.526;2023-03-03T07:23:25;99954.88;;;7.52;100.00
20019;BME280;10170;42.502;26.526;2023-03-03T07:25:53;99946.31;;;7.49;100.00
20019;BME280;10170;42.502;26.526;2023-03-03T07:28:28;99966.66;;;7.49;100.00
20019;BME280;10170;42.502;26.526;2023-03-03T07:30:56;99937.69;;;7.33;100.00
20019;BME280;10170;42.502;26.526;2023-03-03T07:33:42;99961.00;;;7.52;100.00
20019;BME280;10170;42.502;26.526;2023-03-03T07:36:35;99955.50;;;7.39;100.00
20019;BME280;10170;42.502;26.526;2023-03-03T07:39:25;99956.38;;;7.31;100.00
20019;BME280;10170;42.502;26.526;2023-03-03T07:44:45;99946.09;;;7.36;100.00
20019;BME280;10170;42.502;26.526;2023-03-03T07:47:30;99943.00;;;7.47;100.00
20019;BME280;10170;42.502;26.526;2023-03-03T07:50:12;99941.97;;;7.34;100.00
20019;BME280;10170;42.502;26.526;2023-03-03T07:52:54;99931.50;;;7.40;100.00
20019;BME280;10170;42.502;26.526;2023-03-03T07:55:36;99933.53;;;7.53;100.00
20019;BME280;10170;42.502;26.526;2023-03-03T07:58:58;99931.25;;;7.50;100.00
20019;BME280;10170;42.502;26.526;2023-03-03T08:01:35;99919.75;;;7.43;100.00
20019;BME280;10170;42.502;26.526;2023-03-03T08:04:14;99924.34;;;7.49;100.00
20019;BME280;10170;42.502;26.526;2023-03-03T08:06:48;99922.16;;;7.53;100.00
20019;BME280;10170;42.502;26.526;2023-03-03T08:12:00;99913.94;;;7.62;100.00
20019;BME280;10170;42.502;26.526;2023-03-03T08:14:33;99920.25;;;7.61;100.00
20019;BME280;10170;42.502;26.526;2023-03-03T08:17:01;99917.22;;;7.64;100.00
20019;BME280;10170;42.502;26.526;2023-03-03T08:19:29;99903.00;;;7.28;100.00
20019;BME280;10170;42.502;26.526;2023-03-03T08:22:08;99905.91;;;7.56;100.00
20019;BME280;10170;42.502;26.526;2023-03-03T08:24:38;99902.09;;;7.58;100.00
20019;BME280;10170;42.502;26.526;2023-03-03T08:27:04;99907.09;;;7.53;100.00
20019;BME280;10170;42.502;26.526;2023-03-03T08:29:31;99919.75;;;7.43;100.00
20019;BME280;10170;42.502;26.526;2023-03-03T08:31:58;99911.69;;;7.88;100.00
20019;BME280;10170;42.502;26.526;2023-03-03T08:34:25;99919.88;;;7.64;100.00
20019;BME280;10170;42.502;26.526;2023-03-03T08:36:51;99911.44;;;7.83;100.00
20019;BME280;10170;42.502;26.526;2023-03-03T08:39:18;99913.97;;;7.77;100.00
20019;BME280;10170;42.502;26.526;2023-03-03T08:41:45;99909.97;;;8.10;100.00
20019;BME280;10170;42.502;26.526;2023-03-03T08:44:13;99917.91;;;8.39;100.00
20019;BME280;10170;42.502;26.526;2023-03-03T08:46:40;99916.66;;;8.71;100.00
20019;BME280;10170;42.502;26.526;2023-03-03T08:49:06;99913.34;;;8.47;100.00
20019;BME280;10170;42.502;26.526;2023-03-03T08:51:33;99911.06;;;8.30;100.00
20019;BME280;10170;42.502;26.526;2023-03-03T08:54:00;99909.16;;;8.24;100.00
20019;BME280;10170;42.502;26.526;2023-03-03T08:56:27;99898.47;;;8.03;100.00
20019;BME280;10170;42.502;26.526;2023-03-03T08:58:54;99913.34;;;8.18;100.00
20019;BME280;10170;42.502;26.526;2023-03-03T09:01:31;99913.66;;;8.59;100.00
20019;BME280;10170;42.502;26.526;2023-03-03T09:03:58;99916.25;;;8.52;100.00
20019;BME280;10170;42.502;26.526;2023-03-03T09:06:25;99921.53;;;8.23;100.00
20019;BME280;10170;42.502;26.526;2023-03-03T09:08:52;99915.44;;;8.08;100.00
20019;BME280;10170;42.502;26.526;2023-03-03T09:11:27;99915.38;;;8.31;100.00
20019;BME280;10170;42.502;26.526;2023-03-03T09:16:29;99915.56;;;8.65;100.00
20019;BME280;10170;42.502;26.526;2023-03-03T09:19:35;99912.63;;;8.75;100.00
20019;BME280;10170;42.502;26.526;2023-03-03T09:22:24;99918.81;;;8.82;100.00
20019;BME280;10170;42.502;26.526;2023-03-03T09:24:53;99915.59;;;8.50;100.00
20019;BME280;10170;42.502;26.526;2023-03-03T09:27:33;99916.00;;;8.47;100.00
20019;BME280;10170;42.502;26.526;2023-03-03T09:32:52;99907.41;;;8.45;100.00
20019;BME280;10170;42.502;26.526;2023-03-03T09:38:27;99897.28;;;8.34;100.00
20019;BME280;10170;42.502;26.526;2023-03-03T09:44:07;99897.44;;;8.47;100.00
20019;BME280;10170;42.502;26.526;2023-03-03T09:47:16;99886.19;;;8.45;100.00
20019;BME280;10170;42.502;26.526;2023-03-03T10:00:58;99879.56;;;8.35;100.00
20019;BME280;10170;42.502;26.526;2023-03-03T10:06:37;99877.94;;;8.55;100.00
20019;BME280;10170;42.502;26.526;2023-03-03T10:17:01;99849.25;;;8.59;100.00
20019;BME280;10170;42.502;26.526;2023-03-03T10:19:39;99859.84;;;8.59;100.00
20019;BME280;10170;42.502;26.526;2023-03-03T10:25:24;99852.63;;;8.31;100.00
20019;BME280;10170;42.502;26.526;2023-03-03T10:28:04;99835.50;;;8.34;100.00
20019;BME280;10170;42.502;26.526;2023-03-03T10:44:34;99814.75;;;8.37;100.00
20019;BME280;10170;42.502;26.526;2023-03-03T10:52:47;99805.06;;;8.44;100.00
20019;BME280;10170;42.502;26.526;2023-03-03T10:55:32;99802.03;;;8.69;100.00
20019;BME280;10170;42.502;26.526;2023-03-03T11:11:51;99799.72;;;9.08;100.00
20019;BME280;10170;42.502;26.526;2023-03-03T11:15:44;99793.56;;;9.01;100.00
20019;BME280;10170;42.502;26.526;2023-03-03T11:17:47;99793.16;;;9.04;100.00
20019;BME280;10170;42.502;26.526;2023-03-03T11:20:37;99797.63;;;9.24;100.00
20019;BME280;10170;42.502;26.526;2023-03-03T11:26:07;99787.56;;;9.47;100.00
20019;BME280;10170;42.502;26.526;2023-03-03T11:36:59;99791.28;;;10.00;100.00
20019;BME280;10170;42.502;26.526;2023-03-03T11:39:27;99788.59;;;9.87;100.00
20019;BME280;10170;42.502;26.526;2023-03-03T11:42:07;99789.50;;;10.07;100.00
20019;BME280;10170;42.502;26.526;2023-03-03T11:44:41;99779.72;;;9.74;100.00
20019;BME280;10170;42.502;26.526;2023-03-03T11:55:26;99770.34;;;9.37;100.00
20019;BME280;10170;42.502;26.526;2023-03-03T11:58:12;99768.59;;;9.91;100.00
20019;BME280;10170;42.502;26.526;2023-03-03T12:00:51;99773.19;;;10.10;100.00
20019;BME280;10170;42.502;26.526;2023-03-03T12:06:49;99770.72;;;10.09;100.00
20019;BME280;10170;42.502;26.526;2023-03-03T12:25:45;99766.59;;;10.06;100.00
20019;BME280;10170;42.502;26.526;2023-03-03T12:28:21;99728.50;;;9.86;100.00
20019;BME280;10170;42.502;26.526;2023-03-03T12:40:01;99770.25;;;9.51;100.00
20019;BME280;10170;42.502;26.526;2023-03-03T12:50:33;99759.69;;;9.30;100.00
20019;BME280;10170;42.502;26.526;2023-03-03T12:53:27;99758.59;;;8.91;100.00
20019;BME280;10170;42.502;26.526;2023-03-03T12:56:05;99757.84;;;8.76;100.00
20019;BME280;10170;42.502;26.526;2023-03-03T13:01:31;99760.81;;;9.15;100.00
20019;BME280;10170;42.502;26.526;2023-03-03T13:04:30;99765.00;;;9.03;100.00
20019;BME280;10170;42.502;26.526;2023-03-03T13:07:19;99762.72;;;8.72;100.00
20019;BME280;10170;42.502;26.526;2023-03-03T13:13:08;99761.34;;;8.55;100.00
20019;BME280;10170;42.502;26.526;2023-03-03T13:15:43;99748.91;;;8.56;100.00
20019;BME280;10170;42.502;26.526;2023-03-03T13:24:20;99752.91;;;8.45;100.00
20019;BME280;10170;42.502;26.526;2023-03-03T13:27:01;99754.81;;;8.79;100.00
20019;BME280;10170;42.502;26.526;2023-03-03T13:30:11;99751.00;;;8.60;100.00
20019;BME280;10170;42.502;26.526;2023-03-03T13:32:51;99749.69;;;8.49;100.00
20019;BME280;10170;42.502;26.526;2023-03-03T13:44:03;99754.16;;;8.49;100.00
20019;BME280;10170;42.502;26.526;2023-03-03T13:52:27;99749.94;;;8.55;100.00
20019;BME280;10170;42.502;26.526;2023-03-03T13:55:03;99742.97;;;8.53;100.00
20019;BME280;10170;42.502;26.526;2023-03-03T14:05:43;99720.44;;;8.22;100.00
20019;BME280;10170;42.502;26.526;2023-03-03T14:11:14;99731.34;;;8.12;100.00
20019;BME280;10170;42.502;26.526;2023-03-03T14:14:02;99734.94;;;8.05;100.00
20019;BME280;10170;42.502;26.526;2023-03-03T14:19:34;99730.69;;;8.10;100.00
20019;BME280;10170;42.502;26.526;2023-03-03T14:25:05;99724.00;;;8.29;100.00
20019;BME280;10170;42.502;26.526;2023-03-03T14:27:52;99720.59;;;8.35;100.00
20019;BME280;10170;42.502;26.526;2023-03-03T14:35:43;99722.97;;;8.30;100.00
20019;BME280;10170;42.502;26.526;2023-03-03T14:38:23;99728.50;;;8.14;100.00
20019;BME280;10170;42.502;26.526;2023-03-03T14:41:07;99695.91;;;7.92;100.00
20019;BME280;10170;42.502;26.526;2023-03-03T14:43:40;99724.63;;;8.31;100.00
20019;BME280;10170;42.502;26.526;2023-03-03T14:46:37;99717.75;;;8.36;100.00
20019;BME280;10170;42.502;26.526;2023-03-03T14:49:13;99702.63;;;8.30;100.00
20019;BME280;10170;42.502;26.526;2023-03-03T14:51:46;99705.00;;;8.46;100.00
20019;BME280;10170;42.502;26.526;2023-03-03T14:54:28;99711.81;;;8.56;100.00
20019;BME280;10170;42.502;26.526;2023-03-03T15:02:43;99708.97;;;8.57;100.00
20019;BME280;10170;42.502;26.526;2023-03-03T15:05:29;99703.09;;;8.19;100.00
20019;BME280;10170;42.502;26.526;2023-03-03T15:07:56;99701.91;;;8.01;100.00
20019;BME280;10170;42.502;26.526;2023-03-03T15:11:10;99684.53;;;7.77;100.00
20019;BME280;10170;42.502;26.526;2023-03-03T15:13:30;99700.56;;;7.90;100.00
20019;BME280;10170;42.502;26.526;2023-03-03T15:18:26;99720.72;;;8.48;100.00
20019;BME280;10170;42.502;26.526;2023-03-03T15:29:15;99724.91;;;8.21;100.00
20019;BME280;10170;42.502;26.526;2023-03-03T15:35:00;99727.84;;;8.47;100.00
20019;BME280;10170;42.502;26.526;2023-03-03T15:40:42;99736.00;;;8.46;100.00
20019;BME280;10170;42.502;26.526;2023-03-03T15:48:44;99737.47;;;8.13;100.00
20019;BME280;10170;42.502;26.526;2023-03-03T15:54:03;99736.84;;;8.32;100.00
20019;BME280;10170;42.502;26.526;2023-03-03T15:56:50;99736.69;;;8.33;100.00
20019;BME280;10170;42.502;26.526;2023-03-03T16:02:20;99733.09;;;8.05;100.00
20019;BME280;10170;42.502;26.526;2023-03-03T16:04:58;99732.53;;;8.24;100.00
20019;BME280;10170;42.502;26.526;2023-03-03T16:10:46;99739.38;;;7.83;100.00
20019;BME280;10170;42.502;26.526;2023-03-03T16:16:32;99745.13;;;7.87;100.00
20019;BME280;10170;42.502;26.526;2023-03-03T16:33:17;99770.72;;;7.65;100.00
20019;BME280;10170;42.502;26.526;2023-03-03T16:38:44;99775.34;;;7.63;100.00
20019;BME280;10170;42.502;26.526;2023-03-03T16:41:25;99780.00;;;7.61;100.00
20019;BME280;10170;42.502;26.526;2023-03-03T16:46:40;99771.81;;;7.71;100.00
20019;BME280;10170;42.502;26.526;2023-03-03T16:49:24;99781.28;;;7.65;100.00
20019;BME280;10170;42.502;26.526;2023-03-03T16:52:14;99790.78;;;7.60;100.00
20019;BME280;10170;42.502;26.526;2023-03-03T16:57:32;99786.75;;;7.20;100.00
20019;BME280;10170;42.502;26.526;2023-03-03T17:00:22;99780.00;;;7.46;100.00
20019;BME280;10170;42.502;26.526;2023-03-03T17:15:19;99773.78;;;7.10;100.00
20019;BME280;10170;42.502;26.526;2023-03-03T17:58:42;99840.50;;;7.64;100.00
20019;BME280;10170;42.502;26.526;2023-03-03T18:01:19;99841.19;;;7.29;100.00
20019;BME280;10170;42.502;26.526;2023-03-03T18:06:47;99843.09;;;7.35;100.00
20019;BME280;10170;42.502;26.526;2023-03-03T18:09:34;99852.75;;;7.28;100.00
20019;BME280;10170;42.502;26.526;2023-03-03T18:26:01;99849.97;;;7.44;100.00
20019;BME280;10170;42.502;26.526;2023-03-03T18:28:48;99849.63;;;7.10;100.00
20019;BME280;10170;42.502;26.526;2023-03-03T18:31:26;99859.13;;;7.19;100.00
20019;BME280;10170;42.502;26.526;2023-03-03T18:34:00;99854.84;;;7.18;100.00
20019;BME280;10170;42.502;26.526;2023-03-03T18:38:56;99859.94;;;7.19;100.00
20019;BME280;10170;42.502;26.526;2023-03-03T18:41:29;99862.41;;;7.21;100.00
20019;BME280;10170;42.502;26.526;2023-03-03T18:44:01;99858.84;;;7.14;100.00
20019;BME280;10170;42.502;26.526;2023-03-03T18:49:07;99862.88;;;7.62;100.00
20019;BME280;10170;42.502;26.526;2023-03-03T18:59:39;99870.97;;;7.75;100.00